Time;durP1;ratioP1;P1;durP2;ratioP2;P2;SDS_P1;SDS_P2;PMS_P1;PMS_P2;Temp;Humidity;BMP_temperature;BMP_pressure;BME280_temperature;BME280_humidity;BME280_pressure;Samples;Min_cycle;Max_cycle;Signal;HPM_P1;HPM_P2
2022/12/25 00:00:10;;;;;;;10.85;1.02;;;;;;;;;;6072319;23;20114;-60
2022/12/25 00:02:46;;;;;;;9.73;1.00;;;;;;;;;;6066856;23;20022;-59
2022/12/25 00:05:14;;;;;;;14.63;1.08;;;;;;;;;;6070840;23;20025;-60
2022/12/25 00:07:47;;;;;;;8.93;1.07;;;;;;;;;;6072573;23;20024;-60
2022/12/25 00:10:14;;;;;;;7.35;1.15;;;;;;;;;;6066584;23;20070;-60
2022/12/25 00:12:42;;;;;;;10.98;1.08;;;;;;;;;;6072521;23;20101;-60
2022/12/25 00:15:10;;;;;;;7.25;0.80;;;;;;;;;;6065237;23;20070;-60
2022/12/25 00:17:37;;;;;;;9.25;1.40;;;;;;;;;;6072371;23;20054;-60
2022/12/25 00:20:06;;;;;;;9.10;1.20;;;;;;;;;;6067563;23;20618;-60
2022/12/25 00:22:33;;;;;;;11.10;1.30;;;;;;;;;;6074545;23;20406;-59
2022/12/25 00:25:02;;;;;;;8.45;0.80;;;;;;;;;;6065213;23;20015;-61
2022/12/25 00:27:31;;;;;;;9.55;1.35;;;;;;;;;;6070777;23;20011;-60
2022/12/25 00:29:58;;;;;;;2.80;0.52;;;;;;;;;;6069120;23;20295;-61
2022/12/25 00:32:26;;;;;;;12.93;1.20;;;;;;;;;;6071772;23;20026;-59
2022/12/25 00:34:54;;;;;;;8.18;0.80;;;;;;;;;;6063987;23;20053;-60
2022/12/25 00:37:21;;;;;;;11.20;1.20;;;;;;;;;;6072042;23;20066;-60
2022/12/25 00:39:52;;;;;;;9.35;1.10;;;;;;;;;;6074025;23;20022;-60
2022/12/25 00:42:22;;;;;;;11.85;1.13;;;;;;;;;;6062046;23;20090;-60
2022/12/25 00:44:50;;;;;;;8.93;0.90;;;;;;;;;;6067522;23;20058;-59
2022/12/25 00:47:18;;;;;;;15.52;1.30;;;;;;;;;;6062903;23;20018;-60
2022/12/25 00:49:46;;;;;;;8.38;0.90;;;;;;;;;;6069124;23;20022;-60
2022/12/25 00:52:14;;;;;;;8.50;1.50;;;;;;;;;;6066770;23;20015;-60
2022/12/25 00:54:41;;;;;;;8.98;0.95;;;;;;;;;;6070932;23;20049;-60
2022/12/25 00:57:09;;;;;;;10.13;1.10;;;;;;;;;;6071080;23;20093;-60
2022/12/25 00:59:39;;;;;;;13.23;1.63;;;;;;;;;;6067433;23;20610;-60
2022/12/25 01:02:24;;;;;;;5.68;0.90;;;;;;;;;;6071526;23;20057;-58
2022/12/25 01:04:53;;;;;;;8.50;1.00;;;;;;;;;;6064590;23;20033;-60
2022/12/25 01:07:23;;;;;;;7.40;0.73;;;;;;;;;;6068898;23;20320;-60
2022/12/25 01:12:37;;;;;;;9.38;1.10;;;;;;;;;;6064430;23;20449;-60
2022/12/25 01:15:07;;;;;;;16.25;1.42;;;;;;;;;;6070344;23;20021;-60
2022/12/25 01:17:35;;;;;;;6.65;0.65;;;;;;;;;;6065938;23;20019;-60
2022/12/25 01:20:03;;;;;;;5.63;0.77;;;;;;;;;;6072739;23;20045;-60
2022/12/25 01:22:31;;;;;;;5.80;0.70;;;;;;;;;;6065235;23;20014;-60
2022/12/25 01:24:58;;;;;;;8.80;0.77;;;;;;;;;;6069478;23;20062;-60
2022/12/25 01:27:26;;;;;;;8.32;0.88;;;;;;;;;;6066520;23;20045;-58
2022/12/25 01:29:54;;;;;;;7.72;1.20;;;;;;;;;;6070848;23;20489;-60
2022/12/25 01:32:25;;;;;;;5.63;0.82;;;;;;;;;;6065103;23;20014;-60
2022/12/25 01:34:52;;;;;;;10.77;1.13;;;;;;;;;;6071118;23;20198;-60
2022/12/25 01:37:26;;;;;;;6.97;0.88;;;;;;;;;;6064702;23;20019;-56
2022/12/25 01:39:54;;;;;;;12.02;0.98;;;;;;;;;;6071436;23;20529;-61
2022/12/25 01:42:23;;;;;;;9.00;0.98;;;;;;;;;;6040018;23;20085;-60
2022/12/25 01:45:21;;;;;;;7.85;0.55;;;;;;;;;;6067912;23;20041;-60
2022/12/25 01:47:50;;;;;;;6.33;0.87;;;;;;;;;;6061103;23;20022;-60
2022/12/25 01:50:19;;;;;;;9.75;1.20;;;;;;;;;;6072473;23;20045;-60
2022/12/25 01:52:47;;;;;;;9.20;0.80;;;;;;;;;;6064009;23;20069;-60
2022/12/25 01:55:15;;;;;;;11.07;1.38;;;;;;;;;;6068455;23;20064;-60
2022/12/25 01:57:43;;;;;;;13.20;0.90;;;;;;;;;;6069486;23;20054;-60
2022/12/25 02:00:13;;;;;;;10.63;1.13;;;;;;;;;;6072022;23;20046;-60
2022/12/25 02:02:41;;;;;;;9.23;1.15;;;;;;;;;;6045715;23;20109;-60
2022/12/25 02:05:14;;;;;;;6.43;0.82;;;;;;;;;;6048492;23;20331;-59
2022/12/25 02:07:42;;;;;;;14.10;1.83;;;;;;;;;;6066387;23;20018;-61
2022/12/25 02:10:10;;;;;;;13.10;1.35;;;;;;;;;;6064380;23;20015;-60
2022/12/25 02:12:38;;;;;;;9.67;1.17;;;;;;;;;;6042957;23;20109;-60
2022/12/25 02:15:07;;;;;;;11.57;1.25;;;;;;;;;;6073418;23;20105;-56
2022/12/25 02:17:37;;;;;;;12.68;1.25;;;;;;;;;;6064568;23;20045;-60
2022/12/25 02:20:25;;;;;;;12.45;1.33;;;;;;;;;;6056993;23;20054;-60
2022/12/25 02:23:03;;;;;;;10.50;1.13;;;;;;;;;;6019224;23;20058;-59
2022/12/25 02:25:41;;;;;;;19.33;2.13;;;;;;;;;;6069304;23;20102;-60
2022/12/25 02:28:16;;;;;;;11.60;1.38;;;;;;;;;;6078934;23;20019;-59
2022/12/25 02:30:52;;;;;;;11.27;1.15;;;;;;;;;;6047965;23;20505;-60
2022/12/25 02:36:10;;;;;;;13.05;2.05;;;;;;;;;;6069564;23;20018;-60
2022/12/25 02:39:56;;;;;;;7.07;0.90;;;;;;;;;;6071210;23;20097;-59
2022/12/25 02:41:29;;;;;;;13.13;1.30;;;;;;;;;;6066422;23;20049;-57
2022/12/25 03:06:42;;;;;;;12.27;1.40;;;;;;;;;;6010534;23;20077;-59
2022/12/25 03:11:59;;;;;;;11.20;1.38;;;;;;;;;;6071529;23;20057;-60
2022/12/25 03:17:14;;;;;;;13.48;1.70;;;;;;;;;;6064777;23;20018;-59
2022/12/25 03:28:00;;;;;;;13.18;1.90;;;;;;;;;;6076201;23;20038;-60
2022/12/25 03:33:18;;;;;;;15.07;1.60;;;;;;;;;;6064509;23;20020;-60
2022/12/25 03:36:08;;;;;;;16.25;1.55;;;;;;;;;;6073419;23;20036;-57
2022/12/25 04:36:56;;;;;;;14.07;1.65;;;;;;;;;;6045561;23;20019;-58
2022/12/25 04:39:25;;;;;;;17.33;2.10;;;;;;;;;;6069668;23;20077;-59
2022/12/25 04:41:53;;;;;;;10.60;2.23;;;;;;;;;;6069142;23;20045;-58
2022/12/25 04:44:20;;;;;;;10.70;2.05;;;;;;;;;;6068942;23;20384;-58
2022/12/25 04:46:48;;;;;;;7.65;1.15;;;;;;;;;;6071842;23;20018;-58
2022/12/25 04:49:16;;;;;;;9.65;1.40;;;;;;;;;;6065533;23;20913;-60
2022/12/25 04:51:47;;;;;;;15.25;1.75;;;;;;;;;;6071510;23;20031;-58
2022/12/25 04:54:15;;;;;;;14.00;1.53;;;;;;;;;;6067295;23;20094;-60
2022/12/25 04:56:43;;;;;;;15.35;1.58;;;;;;;;;;6071373;23;20052;-58
2022/12/25 04:59:12;;;;;;;10.48;1.30;;;;;;;;;;6060153;23;20025;-58
2022/12/25 05:01:40;;;;;;;11.15;1.23;;;;;;;;;;6070899;23;20424;-60
2022/12/25 05:04:07;;;;;;;17.10;1.38;;;;;;;;;;6059604;23;20538;-60
2022/12/25 05:06:35;;;;;;;11.80;1.10;;;;;;;;;;6070857;23;20023;-60
2022/12/25 05:09:03;;;;;;;13.88;1.00;;;;;;;;;;6061844;23;20096;-60
2022/12/25 05:11:30;;;;;;;11.20;1.13;;;;;;;;;;6075198;23;20018;-60
2022/12/25 05:13:59;;;;;;;11.30;1.42;;;;;;;;;;6053065;23;20022;-60
2022/12/25 05:16:27;;;;;;;12.70;1.80;;;;;;;;;;6070048;23;20026;-60
2022/12/25 05:18:55;;;;;;;12.83;1.07;;;;;;;;;;6064283;23;20244;-60
2022/12/25 05:21:23;;;;;;;8.05;1.40;;;;;;;;;;6068099;23;20019;-60
2022/12/25 05:23:51;;;;;;;10.75;1.35;;;;;;;;;;6071142;23;20252;-60
2022/12/25 05:26:19;;;;;;;14.15;1.67;;;;;;;;;;6062146;23;20022;-60
2022/12/25 05:28:47;;;;;;;17.40;1.55;;;;;;;;;;6052485;23;20029;-60
2022/12/25 05:31:22;;;;;;;13.77;1.50;;;;;;;;;;6074626;23;20016;-60
2022/12/25 05:33:50;;;;;;;9.35;2.13;;;;;;;;;;6073240;23;20070;-60
2022/12/25 05:36:18;;;;;;;17.38;1.92;;;;;;;;;;6062442;23;20018;-60
2022/12/25 05:38:50;;;;;;;11.70;1.20;;;;;;;;;;6069417;23;20101;-60
2022/12/25 05:41:17;;;;;;;14.80;1.75;;;;;;;;;;6064610;23;20322;-60
2022/12/25 05:43:45;;;;;;;14.60;1.60;;;;;;;;;;6070637;23;20032;-60
2022/12/25 05:46:13;;;;;;;13.85;1.60;;;;;;;;;;6067503;23;20018;-60
2022/12/25 05:48:42;;;;;;;11.73;1.85;;;;;;;;;;6067464;23;20791;-60
2022/12/25 05:51:11;;;;;;;12.70;1.75;;;;;;;;;;6060385;23;20093;-60
2022/12/25 05:53:39;;;;;;;18.20;2.00;;;;;;;;;;6069930;23;20015;-60
2022/12/25 05:56:07;;;;;;;14.67;1.67;;;;;;;;;;6040315;23;20101;-59
2022/12/25 05:58:36;;;;;;;17.70;2.40;;;;;;;;;;6061309;23;20021;-60
2022/12/25 06:01:04;;;;;;;14.40;1.45;;;;;;;;;;6069593;23;20019;-60
2022/12/25 06:03:31;;;;;;;14.45;2.53;;;;;;;;;;6064432;23;20101;-60
2022/12/25 06:06:02;;;;;;;14.52;1.58;;;;;;;;;;6043872;23;20028;-60
2022/12/25 06:08:30;;;;;;;6.90;1.27;;;;;;;;;;6072427;23;20093;-60
2022/12/25 06:10:57;;;;;;;11.07;1.90;;;;;;;;;;6068444;23;20093;-60
2022/12/25 06:13:25;;;;;;;23.20;2.28;;;;;;;;;;6064927;23;20025;-60
2022/12/25 06:15:52;;;;;;;12.65;2.10;;;;;;;;;;6071504;23;20033;-60
2022/12/25 06:18:20;;;;;;;21.23;1.85;;;;;;;;;;6065092;23;20015;-60
2022/12/25 06:20:48;;;;;;;13.73;1.70;;;;;;;;;;6072614;23;20496;-60
2022/12/25 06:23:17;;;;;;;13.27;1.90;;;;;;;;;;6039363;23;20018;-60
2022/12/25 06:25:45;;;;;;;15.50;2.15;;;;;;;;;;6071371;23;20026;-60
2022/12/25 06:28:12;;;;;;;13.90;2.17;;;;;;;;;;6060236;23;20070;-60
2022/12/25 06:30:40;;;;;;;16.13;2.10;;;;;;;;;;6075519;23;20049;-60
2022/12/25 06:33:07;;;;;;;14.00;2.10;;;;;;;;;;6060655;23;20105;-60
2022/12/25 06:35:38;;;;;;;16.65;2.08;;;;;;;;;;6073848;23;20505;-60
2022/12/25 06:38:06;;;;;;;11.75;1.23;;;;;;;;;;6061388;23;20042;-60
2022/12/25 06:40:35;;;;;;;13.52;1.35;;;;;;;;;;6075216;23;20053;-60
2022/12/25 06:43:02;;;;;;;17.05;2.30;;;;;;;;;;6064115;23;20069;-60
2022/12/25 06:45:30;;;;;;;15.23;1.67;;;;;;;;;;6069779;23;20018;-58
2022/12/25 06:47:58;;;;;;;15.93;1.70;;;;;;;;;;6072757;23;20094;-58
2022/12/25 06:50:25;;;;;;;11.68;1.58;;;;;;;;;;6063284;23;20022;-58
2022/12/25 06:52:53;;;;;;;12.13;1.35;;;;;;;;;;6070585;23;20097;-58
2022/12/25 06:55:21;;;;;;;11.32;1.45;;;;;;;;;;6063310;23;20705;-58
2022/12/25 06:57:49;;;;;;;8.80;1.60;;;;;;;;;;6074373;23;20019;-59
2022/12/25 07:00:17;;;;;;;16.60;3.20;;;;;;;;;;6063534;23;20432;-60
2022/12/25 07:02:47;;;;;;;10.30;1.27;;;;;;;;;;6067837;23;20015;-60
2022/12/25 07:05:14;;;;;;;14.38;2.13;;;;;;;;;;6070549;23;20023;-60
2022/12/25 07:07:42;;;;;;;14.68;2.20;;;;;;;;;;6064364;23;20046;-60
2022/12/25 07:10:11;;;;;;;13.97;1.53;;;;;;;;;;6069447;23;20383;-60
2022/12/25 07:12:39;;;;;;;14.30;1.88;;;;;;;;;;6069255;23;20327;-60
2022/12/25 07:15:08;;;;;;;9.27;1.73;;;;;;;;;;6038027;23;20026;-57
2022/12/25 07:17:36;;;;;;;15.88;1.38;;;;;;;;;;6074133;23;20014;-60
2022/12/25 07:20:04;;;;;;;11.57;1.98;;;;;;;;;;6064895;23;20546;-60
2022/12/25 07:22:32;;;;;;;15.07;2.77;;;;;;;;;;6078379;23;20128;-60
2022/12/25 07:24:59;;;;;;;9.15;1.55;;;;;;;;;;6061875;23;20046;-58
2022/12/25 07:27:27;;;;;;;14.57;2.10;;;;;;;;;;6067925;23;20094;-59
2022/12/25 07:29:54;;;;;;;5.55;0.90;;;;;;;;;;6062943;23;20262;-60
2022/12/25 07:32:23;;;;;;;13.40;1.83;;;;;;;;;;6072027;23;20110;-60
2022/12/25 07:34:51;;;;;;;14.30;1.93;;;;;;;;;;6063629;23;20770;-60
2022/12/25 07:37:19;;;;;;;17.58;1.85;;;;;;;;;;6035356;23;20220;-61
2022/12/25 07:39:46;;;;;;;10.85;2.83;;;;;;;;;;6036168;23;20065;-58
2022/12/25 07:42:14;;;;;;;17.88;2.00;;;;;;;;;;6042934;23;20026;-60
2022/12/25 07:44:48;;;;;;;11.23;2.00;;;;;;;;;;6037351;23;20022;-60
2022/12/25 07:47:15;;;;;;;12.40;1.80;;;;;;;;;;6033651;23;20050;-60
2022/12/25 07:49:44;;;;;;;13.93;2.08;;;;;;;;;;6042862;23;20050;-61
2022/12/25 07:52:12;;;;;;;15.55;1.20;;;;;;;;;;6033676;23;20019;-60
2022/12/25 07:54:40;;;;;;;16.80;1.77;;;;;;;;;;6042478;23;20041;-60
2022/12/25 07:57:07;;;;;;;11.98;1.70;;;;;;;;;;6035791;23;20109;-59
2022/12/25 07:59:35;;;;;;;12.00;2.03;;;;;;;;;;6040965;23;20653;-60
2022/12/25 08:02:03;;;;;;;9.57;1.38;;;;;;;;;;6033982;23;20094;-60
2022/12/25 08:04:31;;;;;;;7.88;1.88;;;;;;;;;;6043767;23;20054;-60
2022/12/25 08:07:00;;;;;;;17.25;2.13;;;;;;;;;;6041067;23;20062;-60
2022/12/25 08:09:27;;;;;;;12.18;1.60;;;;;;;;;;6038005;23;20484;-60
2022/12/25 08:11:56;;;;;;;14.03;1.60;;;;;;;;;;6031846;23;20022;-60
2022/12/25 08:14:24;;;;;;;8.23;1.15;;;;;;;;;;6044765;23;20022;-60
2022/12/25 08:16:52;;;;;;;16.35;1.88;;;;;;;;;;6036110;23;20043;-60
2022/12/25 08:19:19;;;;;;;11.80;1.50;;;;;;;;;;6041226;23;20033;-60
2022/12/25 08:21:47;;;;;;;11.50;2.30;;;;;;;;;;6042629;23;20052;-59
2022/12/25 08:24:20;;;;;;;16.63;2.37;;;;;;;;;;6041101;23;20023;-60
2022/12/25 08:26:48;;;;;;;11.98;1.75;;;;;;;;;;6041058;23;20390;-59
2022/12/25 08:29:15;;;;;;;14.18;1.80;;;;;;;;;;6045252;23;20342;-58
2022/12/25 08:31:44;;;;;;;15.85;2.30;;;;;;;;;;6037244;23;20038;-60
2022/12/25 08:34:13;;;;;;;15.07;1.42;;;;;;;;;;6036975;23;20034;-60
2022/12/25 08:36:41;;;;;;;13.83;1.40;;;;;;;;;;6035177;23;20046;-58
2022/12/25 08:39:08;;;;;;;14.90;2.53;;;;;;;;;;6040510;23;20069;-58
2022/12/25 08:41:37;;;;;;;10.70;1.52;;;;;;;;;;6038547;23;20043;-58
2022/12/25 08:44:06;;;;;;;13.88;1.50;;;;;;;;;;6037681;23;20453;-59
2022/12/25 08:46:34;;;;;;;13.10;1.42;;;;;;;;;;6039243;23;20015;-58
2022/12/25 08:49:02;;;;;;;15.57;1.73;;;;;;;;;;6034702;23;20019;-58
2022/12/25 08:51:29;;;;;;;18.48;3.05;;;;;;;;;;6042886;23;20027;-58
2022/12/25 08:53:58;;;;;;;9.40;1.60;;;;;;;;;;6037403;23;20086;-58
2022/12/25 08:56:27;;;;;;;15.63;1.52;;;;;;;;;;6040989;23;20030;-57
2022/12/25 08:58:56;;;;;;;12.57;1.67;;;;;;;;;;6035382;23;20022;-58
2022/12/25 09:01:26;;;;;;;17.53;1.97;;;;;;;;;;6037190;23;20082;-58
2022/12/25 09:03:54;;;;;;;15.88;2.25;;;;;;;;;;6042892;23;20019;-58
2022/12/25 09:06:21;;;;;;;10.65;1.60;;;;;;;;;;6035774;23;20118;-58
2022/12/25 09:08:53;;;;;;;12.40;1.77;;;;;;;;;;6042090;23;20043;-58
2022/12/25 09:11:21;;;;;;;11.75;1.70;;;;;;;;;;6045934;23;20757;-58
2022/12/25 09:13:49;;;;;;;16.90;2.87;;;;;;;;;;6036035;23;20019;-57
2022/12/25 09:16:18;;;;;;;16.60;1.40;;;;;;;;;;6039983;23;20086;-58
2022/12/25 09:18:46;;;;;;;11.32;2.47;;;;;;;;;;6032934;23;20023;-57
2022/12/25 09:21:15;;;;;;;15.80;2.05;;;;;;;;;;6038838;23;20274;-58
2022/12/25 09:23:42;;;;;;;9.65;1.73;;;;;;;;;;6043223;23;20074;-58
2022/12/25 09:26:12;;;;;;;8.47;1.70;;;;;;;;;;6031792;23;20065;-58
2022/12/25 09:28:39;;;;;;;13.00;1.50;;;;;;;;;;6040116;23;20014;-58
2022/12/25 09:31:20;;;;;;;9.00;1.50;;;;;;;;;;6040156;23;20029;-58
2022/12/25 09:33:49;;;;;;;6.63;1.33;;;;;;;;;;6044287;23;20322;-57
2022/12/25 09:36:17;;;;;;;17.85;1.88;;;;;;;;;;6047297;23;20045;-58
2022/12/25 09:38:45;;;;;;;11.17;1.63;;;;;;;;;;6069173;23;20014;-58
2022/12/25 09:41:17;;;;;;;12.45;1.70;;;;;;;;;;6031851;23;20045;-58
2022/12/25 09:43:46;;;;;;;9.45;1.20;;;;;;;;;;6071157;23;20532;-58
2022/12/25 09:46:15;;;;;;;12.18;1.20;;;;;;;;;;6068697;23;20022;-58
2022/12/25 09:48:47;;;;;;;9.73;1.88;;;;;;;;;;6064311;23;20465;-58
2022/12/25 09:51:16;;;;;;;8.07;1.37;;;;;;;;;;6069939;23;20025;-58
2022/12/25 09:53:47;;;;;;;9.50;1.48;;;;;;;;;;6064625;23;20373;-58
2022/12/25 09:56:17;;;;;;;13.88;2.17;;;;;;;;;;6069581;23;20026;-58
2022/12/25 09:58:44;;;;;;;13.98;2.13;;;;;;;;;;6063048;23;20018;-58
2022/12/25 10:01:16;;;;;;;14.48;2.30;;;;;;;;;;6044540;23;20023;-58
2022/12/25 10:04:11;;;;;;;16.53;2.30;;;;;;;;;;6061441;23;20033;-58
2022/12/25 10:06:44;;;;;;;16.80;2.08;;;;;;;;;;6068938;23;20054;-58
2022/12/25 10:09:18;;;;;;;11.63;3.03;;;;;;;;;;6063145;23;20468;-58
2022/12/25 10:11:55;;;;;;;9.55;1.70;;;;;;;;;;6075449;23;20018;-58
2022/12/25 10:14:26;;;;;;;15.52;2.45;;;;;;;;;;6069755;23;20014;-58
2022/12/25 10:16:59;;;;;;;9.93;2.03;;;;;;;;;;6049517;23;20566;-58
2022/12/25 10:19:32;;;;;;;14.60;2.60;;;;;;;;;;6072735;23;20022;-55
2022/12/25 10:22:03;;;;;;;11.52;2.10;;;;;;;;;;6065646;23;20014;-58
2022/12/25 10:24:33;;;;;;;9.55;1.83;;;;;;;;;;6061370;23;20022;-59
2022/12/25 10:27:02;;;;;;;10.55;1.88;;;;;;;;;;6040523;23;20022;-58
2022/12/25 10:29:31;;;;;;;10.60;1.70;;;;;;;;;;6072737;23;20022;-57
2022/12/25 10:31:59;;;;;;;7.90;1.30;;;;;;;;;;6054112;23;20046;-58
2022/12/25 10:34:27;;;;;;;11.77;1.92;;;;;;;;;;6069924;23;20120;-57
2022/12/25 10:37:00;;;;;;;24.17;2.40;;;;;;;;;;6070479;23;20132;-58
2022/12/25 10:39:30;;;;;;;8.43;1.70;;;;;;;;;;6064720;23;20014;-58
2022/12/25 10:42:03;;;;;;;12.03;1.73;;;;;;;;;;6071795;23;20468;-58
2022/12/25 10:44:32;;;;;;;10.63;2.05;;;;;;;;;;6065984;23;20379;-58
2022/12/25 10:47:08;;;;;;;10.50;1.52;;;;;;;;;;6040363;23;20022;-58
2022/12/25 10:49:37;;;;;;;10.73;1.52;;;;;;;;;;6070494;23;20046;-58
2022/12/25 10:52:18;;;;;;;10.70;1.80;;;;;;;;;;6036417;23;20022;-58
2022/12/25 10:54:47;;;;;;;13.93;1.60;;;;;;;;;;6074884;23;20528;-58
2022/12/25 10:57:16;;;;;;;8.55;2.22;;;;;;;;;;6061042;23;20057;-59
2022/12/25 10:59:44;;;;;;;13.93;2.03;;;;;;;;;;6048989;23;20349;-58
2022/12/25 11:02:14;;;;;;;16.30;2.33;;;;;;;;;;6063063;23;20045;-58
2022/12/25 11:04:42;;;;;;;12.98;1.88;;;;;;;;;;6068526;23;20069;-58
2022/12/25 11:07:22;;;;;;;10.73;1.90;;;;;;;;;;6073515;23;20522;-58
2022/12/25 11:09:51;;;;;;;11.85;1.83;;;;;;;;;;6074034;23;20101;-58
2022/12/25 11:12:30;;;;;;;13.70;1.48;;;;;;;;;;6066413;23;20323;-58
2022/12/25 11:15:23;;;;;;;5.75;1.40;;;;;;;;;;6071151;23;20014;-58
2022/12/25 11:17:51;;;;;;;12.43;1.70;;;;;;;;;;6072227;23;20042;-57
2022/12/25 11:20:19;;;;;;;11.50;1.53;;;;;;;;;;6062272;23;20097;-58
2022/12/25 11:22:48;;;;;;;14.32;2.03;;;;;;;;;;6067446;23;20398;-56
2022/12/25 11:25:21;;;;;;;12.75;1.85;;;;;;;;;;6072859;23;20085;-58
2022/12/25 11:27:56;;;;;;;13.85;1.67;;;;;;;;;;6041936;23;20058;-58
2022/12/25 11:30:23;;;;;;;10.73;1.90;;;;;;;;;;6062069;23;20099;-58
2022/12/25 11:32:56;;;;;;;9.80;1.40;;;;;;;;;;6074488;23;20493;-58
2022/12/25 11:35:27;;;;;;;9.95;1.52;;;;;;;;;;6073077;23;20462;-58
2022/12/25 11:37:55;;;;;;;17.00;1.85;;;;;;;;;;6061158;23;20026;-58
2022/12/25 11:40:24;;;;;;;14.73;1.70;;;;;;;;;;6074231;23;20014;-58
2022/12/25 11:42:54;;;;;;;11.40;2.03;;;;;;;;;;6063342;23;20401;-58
2022/12/25 11:45:25;;;;;;;11.87;1.63;;;;;;;;;;6070830;23;20065;-58
2022/12/25 11:47:55;;;;;;;9.88;1.45;;;;;;;;;;6071223;23;20041;-58
2022/12/25 11:50:27;;;;;;;8.50;1.58;;;;;;;;;;6064496;23;20557;-58
2022/12/25 11:52:55;;;;;;;9.63;1.52;;;;;;;;;;6072047;23;20011;-58
2022/12/25 11:55:27;;;;;;;6.00;1.05;;;;;;;;;;6063111;23;20454;-58
2022/12/25 11:57:57;;;;;;;9.97;1.60;;;;;;;;;;6074136;23;20292;-58
2022/12/25 12:00:25;;;;;;;12.55;1.40;;;;;;;;;;6062696;23;20030;-58
2022/12/25 12:02:56;;;;;;;13.35;1.50;;;;;;;;;;6069267;23;20018;-58
2022/12/25 12:05:30;;;;;;;10.10;1.27;;;;;;;;;;6076649;23;20019;-57
2022/12/25 12:07:59;;;;;;;6.68;0.98;;;;;;;;;;6061761;23;20454;-58
2022/12/25 12:10:40;;;;;;;8.93;0.77;;;;;;;;;;6064582;23;20071;-57
2022/12/25 12:13:16;;;;;;;12.73;1.35;;;;;;;;;;6070119;23;20014;-57
2022/12/25 12:15:45;;;;;;;7.13;0.90;;;;;;;;;;6063156;23;20018;-59
2022/12/25 12:18:21;;;;;;;7.47;1.38;;;;;;;;;;6065520;23;20030;-58
2022/12/25 12:20:59;;;;;;;8.32;1.40;;;;;;;;;;6069168;23;20053;-58
2022/12/25 12:23:27;;;;;;;7.83;1.20;;;;;;;;;;6066680;23;20033;-57
2022/12/25 12:26:00;;;;;;;11.50;1.08;;;;;;;;;;6042431;23;20014;-58
2022/12/25 12:28:29;;;;;;;6.97;1.40;;;;;;;;;;6068827;23;20054;-60
2022/12/25 12:31:01;;;;;;;8.88;1.10;;;;;;;;;;6071519;23;20101;-61
2022/12/25 12:33:30;;;;;;;4.82;0.90;;;;;;;;;;6062451;23;20083;-59
2022/12/25 12:35:59;;;;;;;7.03;1.57;;;;;;;;;;6069058;23;20042;-58
2022/12/25 12:38:27;;;;;;;6.25;1.23;;;;;;;;;;6061769;23;20356;-57
2022/12/25 12:41:00;;;;;;;5.68;0.85;;;;;;;;;;6044810;23;20011;-59
2022/12/25 12:43:31;;;;;;;6.65;1.08;;;;;;;;;;6071653;23;20086;-60
2022/12/25 12:46:02;;;;;;;4.85;0.57;;;;;;;;;;6068414;23;20102;-60
2022/12/25 12:48:37;;;;;;;8.97;1.60;;;;;;;;;;6071264;23;20045;-58
2022/12/25 12:51:05;;;;;;;6.72;1.23;;;;;;;;;;6046152;23;20015;-58
2022/12/25 12:53:33;;;;;;;5.45;1.10;;;;;;;;;;6065210;23;20032;-58
2022/12/25 12:56:13;;;;;;;6.57;0.95;;;;;;;;;;6065896;23;20049;-58
2022/12/25 12:58:45;;;;;;;6.75;0.90;;;;;;;;;;6064233;23;20053;-58
2022/12/25 13:01:18;;;;;;;11.73;1.30;;;;;;;;;;6069272;23;20446;-59
2022/12/25 13:04:00;;;;;;;11.88;1.25;;;;;;;;;;6036254;23;20347;-58
2022/12/25 13:06:32;;;;;;;9.98;1.25;;;;;;;;;;6068254;23;20118;-59
2022/12/25 13:09:03;;;;;;;8.10;1.40;;;;;;;;;;6063883;23;20780;-59
2022/12/25 13:11:37;;;;;;;10.45;0.90;;;;;;;;;;6076774;23;20509;-58
2022/12/25 13:14:05;;;;;;;5.93;1.57;;;;;;;;;;6062237;23;20418;-59
2022/12/25 13:16:37;;;;;;;5.90;0.93;;;;;;;;;;6069721;23;20046;-59
2022/12/25 13:19:07;;;;;;;6.47;0.77;;;;;;;;;;6071299;23;20014;-62
2022/12/25 13:21:35;;;;;;;4.15;0.50;;;;;;;;;;6068294;23;20256;-62
2022/12/25 13:24:07;;;;;;;3.42;0.43;;;;;;;;;;6070080;23;20057;-62
2022/12/25 13:26:38;;;;;;;5.50;0.60;;;;;;;;;;6043298;23;20054;-63
2022/12/25 13:29:05;;;;;;;4.10;0.38;;;;;;;;;;6071292;23;20029;-63
2022/12/25 13:31:40;;;;;;;4.15;0.50;;;;;;;;;;6063363;23;20468;-62
2022/12/25 13:34:17;;;;;;;6.85;0.85;;;;;;;;;;6073544;23;20018;-62
2022/12/25 13:36:45;;;;;;;6.32;0.90;;;;;;;;;;6062484;23;20359;-62
2022/12/25 13:39:14;;;;;;;10.00;0.83;;;;;;;;;;6065038;23;20014;-62
2022/12/25 13:42:05;;;;;;;5.97;0.60;;;;;;;;;;6070527;23;20074;-61
2022/12/25 13:44:39;;;;;;;4.28;0.63;;;;;;;;;;6068791;23;20025;-62
2022/12/25 13:47:17;;;;;;;2.25;0.30;;;;;;;;;;6062646;23;20049;-61
2022/12/25 13:49:45;;;;;;;7.40;0.52;;;;;;;;;;6069283;23;20097;-62
2022/12/25 13:52:14;;;;;;;2.43;0.33;;;;;;;;;;6061221;23;20538;-61
2022/12/25 13:54:52;;;;;;;2.63;0.40;;;;;;;;;;6073502;23;20053;-62
2022/12/25 13:57:22;;;;;;;4.88;0.80;;;;;;;;;;6061637;23;20018;-61
2022/12/25 13:59:51;;;;;;;5.70;0.73;;;;;;;;;;6061551;23;20097;-61
2022/12/25 14:02:20;;;;;;;6.72;0.77;;;;;;;;;;6045443;23;20548;-61
2022/12/25 14:04:48;;;;;;;6.17;0.73;;;;;;;;;;6066377;23;20030;-60
2022/12/25 14:07:18;;;;;;;4.22;0.52;;;;;;;;;;6063149;23;20022;-61
2022/12/25 14:09:47;;;;;;;5.22;0.93;;;;;;;;;;6072122;23;20049;-61
2022/12/25 14:12:14;;;;;;;4.70;0.68;;;;;;;;;;6039200;23;20072;-61
2022/12/25 14:14:48;;;;;;;6.22;0.88;;;;;;;;;;6071158;23;20018;-62
2022/12/25 14:17:15;;;;;;;5.67;0.70;;;;;;;;;;6060314;23;20101;-62
2022/12/25 14:19:43;;;;;;;5.63;0.60;;;;;;;;;;6072768;23;20052;-61
2022/12/25 14:22:16;;;;;;;5.78;0.80;;;;;;;;;;6063151;23;20096;-62
2022/12/25 14:24:43;;;;;;;5.15;0.73;;;;;;;;;;6064466;23;20053;-61
2022/12/25 14:27:16;;;;;;;3.22;0.50;;;;;;;;;;6068692;23;20014;-61
2022/12/25 14:29:45;;;;;;;6.70;1.37;;;;;;;;;;6065250;23;20019;-61
2022/12/25 14:32:16;;;;;;;6.22;0.90;;;;;;;;;;6070891;23;20125;-61
2022/12/25 14:34:45;;;;;;;5.05;0.43;;;;;;;;;;6064200;23;20014;-61
2022/12/25 14:37:15;;;;;;;3.10;0.60;;;;;;;;;;6073337;23;20019;-62
2022/12/25 14:39:45;;;;;;;5.47;0.50;;;;;;;;;;6063253;23;20014;-61
2022/12/25 14:42:18;;;;;;;5.97;1.10;;;;;;;;;;6073877;23;20018;-61
2022/12/25 14:44:55;;;;;;;5.32;0.50;;;;;;;;;;6066956;23;20030;-62
2022/12/25 14:47:24;;;;;;;7.03;0.68;;;;;;;;;;6063999;23;20049;-62
2022/12/25 14:49:53;;;;;;;2.88;0.47;;;;;;;;;;6071287;23;20010;-61
2022/12/25 14:52:22;;;;;;;3.50;0.40;;;;;;;;;;6062502;23;20175;-62
2022/12/25 14:54:52;;;;;;;3.20;0.50;;;;;;;;;;6073716;23;20029;-61
2022/12/25 14:57:25;;;;;;;4.25;0.50;;;;;;;;;;6057182;23;20395;-62
2022/12/25 15:00:01;;;;;;;3.50;0.30;;;;;;;;;;6064777;23;20069;-61
2022/12/25 15:02:33;;;;;;;3.75;0.32;;;;;;;;;;6073341;23;20302;-61
2022/12/25 15:05:01;;;;;;;2.22;0.30;;;;;;;;;;6069079;23;20014;-61
2022/12/25 15:07:30;;;;;;;3.53;0.30;;;;;;;;;;6066063;23;20101;-61
2022/12/25 15:09:57;;;;;;;4.53;0.50;;;;;;;;;;6072854;23;20011;-61
2022/12/25 15:12:45;;;;;;;2.38;0.30;;;;;;;;;;6067947;23;20025;-61
2022/12/25 15:15:18;;;;;;;4.50;0.30;;;;;;;;;;6071404;23;20045;-62
2022/12/25 15:17:48;;;;;;;3.63;0.40;;;;;;;;;;6073106;23;20053;-61
2022/12/25 15:20:16;;;;;;;5.33;0.60;;;;;;;;;;6062757;23;20096;-61
2022/12/25 15:22:46;;;;;;;4.22;0.70;;;;;;;;;;6071054;23;20058;-62
2022/12/25 15:25:34;;;;;;;4.85;1.13;;;;;;;;;;6072658;23;20026;-61
2022/12/25 15:28:01;;;;;;;3.63;0.50;;;;;;;;;;6067812;23;20077;-61
2022/12/25 15:30:40;;;;;;;5.18;0.80;;;;;;;;;;6073192;23;20450;-61
2022/12/25 15:33:12;;;;;;;5.50;0.57;;;;;;;;;;6064966;23;20073;-61
2022/12/25 15:35:40;;;;;;;4.72;0.70;;;;;;;;;;6069029;23;20105;-61
2022/12/25 15:38:07;;;;;;;8.85;1.02;;;;;;;;;;6062912;23;20046;-60
2022/12/25 15:40:35;;;;;;;5.32;0.55;;;;;;;;;;6075633;23;20462;-61
2022/12/25 15:43:03;;;;;;;4.72;0.68;;;;;;;;;;6064120;23;20050;-61
2022/12/25 15:45:40;;;;;;;5.43;0.57;;;;;;;;;;6043907;23;20381;-61
2022/12/25 15:48:09;;;;;;;4.30;0.90;;;;;;;;;;6039945;23;20109;-61
2022/12/25 15:50:38;;;;;;;6.05;0.80;;;;;;;;;;6062608;23;20109;-61
2022/12/25 15:53:05;;;;;;;6.93;0.98;;;;;;;;;;6071066;23;20029;-61
2022/12/25 15:55:35;;;;;;;7.32;0.82;;;;;;;;;;6062985;23;20410;-60
2022/12/25 15:58:03;;;;;;;5.97;0.80;;;;;;;;;;6072704;23;20042;-61
2022/12/25 16:00:30;;;;;;;6.75;1.00;;;;;;;;;;6062401;23;20046;-61
2022/12/25 16:03:02;;;;;;;6.18;0.77;;;;;;;;;;6070648;23;20042;-61
2022/12/25 16:05:31;;;;;;;6.80;0.68;;;;;;;;;;6077965;23;20030;-61
2022/12/25 16:07:58;;;;;;;5.00;0.40;;;;;;;;;;6064424;23;20950;-61
2022/12/25 16:10:26;;;;;;;4.47;0.53;;;;;;;;;;6068701;23;20029;-61
2022/12/25 16:12:59;;;;;;;4.85;0.60;;;;;;;;;;6071516;23;20025;-61
2022/12/25 16:15:27;;;;;;;3.88;0.40;;;;;;;;;;6051084;23;20493;-58
2022/12/25 16:17:54;;;;;;;5.68;0.70;;;;;;;;;;6068341;23;20019;-61
2022/12/25 16:20:22;;;;;;;5.32;0.63;;;;;;;;;;6069083;23;20086;-61
2022/12/25 16:22:51;;;;;;;4.60;0.60;;;;;;;;;;6071531;23;20015;-60
2022/12/25 16:25:19;;;;;;;6.57;0.60;;;;;;;;;;6063927;23;20038;-60
2022/12/25 16:27:47;;;;;;;5.80;0.50;;;;;;;;;;6067920;23;20062;-60
2022/12/25 16:30:16;;;;;;;5.75;0.60;;;;;;;;;;6058228;23;20156;-60
2022/12/25 16:32:44;;;;;;;4.88;0.63;;;;;;;;;;6045273;23;20122;-60
2022/12/25 16:35:12;;;;;;;9.20;1.30;;;;;;;;;;6061312;23;20022;-61